createdAt,value
2019-04-22T00:02:17.478Z,3.50
2019-04-22T00:05:01.097Z,3.90
2019-04-22T00:07:44.955Z,3.15
2019-04-22T00:10:19.338Z,3.10
2019-04-22T00:12:47.086Z,3.27
2019-04-22T00:15:15.490Z,3.35
2019-04-22T00:17:56.991Z,3.42
2019-04-22T00:20:22.774Z,3.55
2019-04-22T00:22:52.077Z,3.10
2019-04-22T00:25:31.027Z,3.10
2019-04-22T00:27:59.063Z,3.22
2019-04-22T00:30:20.415Z,3.20
2019-04-22T00:33:03.398Z,3.12
2019-04-22T00:35:38.067Z,3.50
2019-04-22T00:38:12.868Z,3.50
2019-04-22T00:40:39.586Z,3.50
2019-04-22T00:43:13.588Z,3.25
2019-04-22T00:45:44.681Z,3.35
2019-04-22T00:48:17.832Z,3.30
2019-04-22T00:50:48.178Z,3.23
2019-04-22T00:53:22.502Z,3.27
2019-04-22T00:56:00.330Z,3.10
2019-04-22T00:58:36.545Z,3.05
2019-04-22T01:01:09.015Z,3.47
2019-04-22T01:03:44.151Z,3.95
2019-04-22T01:06:11.961Z,3.83
2019-04-22T01:08:51.231Z,2.87
2019-04-22T01:11:17.167Z,3.10
2019-04-22T01:13:38.706Z,3.30
2019-04-22T01:16:14.001Z,3.60
2019-04-22T01:18:42.341Z,3.20
2019-04-22T01:23:40.716Z,3.00
2019-04-22T01:26:09.904Z,3.40
2019-04-22T01:28:42.278Z,3.37
2019-04-22T01:31:07.396Z,3.05
2019-04-22T01:33:38.982Z,2.90
2019-04-22T01:36:24.555Z,3.40
2019-04-22T01:38:58.160Z,3.33
2019-04-22T01:41:35.840Z,3.35
2019-04-22T01:44:16.383Z,3.50
2019-04-22T01:46:39.334Z,3.80
2019-04-22T01:49:10.343Z,3.98
2019-04-22T01:51:48.568Z,3.77
2019-04-22T01:54:12.655Z,4.83
2019-04-22T01:56:40.838Z,3.47
2019-04-22T01:58:59.215Z,3.37
2019-04-22T02:01:43.603Z,3.35
2019-04-22T02:04:08.215Z,3.33
2019-04-22T02:12:04.616Z,3.45
2019-04-22T02:14:34.079Z,3.45
2019-04-22T02:17:05.176Z,3.52
2019-04-22T02:22:00.900Z,3.65
2019-04-22T02:24:39.610Z,3.67
2019-04-22T02:27:13.976Z,3.80
2019-04-22T02:32:23.255Z,3.87
2019-04-22T02:37:18.752Z,3.87
2019-04-22T02:39:41.011Z,4.08
2019-04-22T02:44:48.612Z,4.22
2019-04-22T02:52:26.139Z,4.33
2019-04-22T02:54:54.574Z,4.20
2019-04-22T02:57:30.194Z,4.22
2019-04-22T02:59:57.112Z,4.05
2019-04-22T03:02:34.696Z,3.70
2019-04-22T03:05:00.804Z,3.75
2019-04-22T03:07:23.529Z,3.08
2019-04-22T03:09:57.752Z,3.58
2019-04-22T03:14:53.552Z,3.20
2019-04-22T03:17:43.701Z,3.58
2019-04-22T03:20:04.267Z,3.33
2019-04-22T03:22:46.879Z,3.45
2019-04-22T03:25:32.728Z,4.17
2019-04-22T03:27:34.766Z,3.77
2019-04-22T03:33:06.472Z,3.60
2019-04-22T03:40:28.666Z,3.60
2019-04-22T03:52:56.138Z,3.70
2019-04-22T04:03:12.083Z,3.92
2019-04-22T04:05:45.474Z,3.60
2019-04-22T04:08:14.847Z,3.60
2019-04-22T04:10:37.116Z,3.30
2019-04-22T04:13:03.384Z,3.47
2019-04-22T04:16:03.250Z,3.17
2019-04-22T04:18:05.015Z,3.77
2019-04-22T04:25:42.734Z,3.70
2019-04-22T04:28:29.821Z,3.75
2019-04-22T04:30:42.631Z,3.80
2019-04-22T04:33:15.723Z,3.50
2019-04-22T04:35:47.822Z,3.70
2019-04-22T04:38:05.107Z,3.40
2019-04-22T04:40:41.941Z,3.58
2019-04-22T04:43:15.643Z,3.65
2019-04-22T04:48:21.191Z,3.80
2019-04-22T04:50:58.651Z,3.87
2019-04-22T04:55:53.150Z,3.60
2019-04-22T04:58:36.754Z,3.35
2019-04-22T05:00:57.753Z,3.20
2019-04-22T05:03:29.796Z,3.55
2019-04-22T05:05:59.281Z,3.30
2019-04-22T05:08:39.167Z,4.10
2019-04-22T05:10:56.534Z,3.98
2019-04-22T05:13:32.928Z,3.50
2019-04-22T05:16:18.432Z,3.35
2019-04-22T05:18:37.328Z,3.60
2019-04-22T05:21:09.680Z,3.60
2019-04-22T05:23:30.481Z,3.45
2019-04-22T05:26:04.206Z,4.03
2019-04-22T05:28:31.524Z,5.00
2019-04-22T05:31:05.157Z,5.67
2019-04-22T05:33:36.068Z,6.28
2019-04-22T05:36:08.385Z,5.78
2019-04-22T05:38:42.773Z,4.35
2019-04-22T05:41:05.247Z,3.70
2019-04-22T05:43:38.663Z,4.28
2019-04-22T05:46:09.129Z,3.77
2019-04-22T05:48:46.661Z,3.58
2019-04-22T05:51:10.044Z,3.72
2019-04-22T05:53:40.553Z,3.37
2019-04-22T05:56:20.819Z,3.75
2019-04-22T05:58:47.348Z,3.50
2019-04-22T06:01:38.587Z,3.40
2019-04-22T06:03:52.856Z,3.47
2019-04-22T06:08:55.850Z,3.30
2019-04-22T06:11:28.446Z,3.15
2019-04-22T06:13:51.903Z,3.47
2019-04-22T06:16:31.242Z,3.60
2019-04-22T06:19:03.030Z,3.20
2019-04-22T06:21:36.016Z,2.95
2019-04-22T06:24:04.894Z,3.87
2019-04-22T06:26:48.899Z,3.45
2019-04-22T06:29:13.768Z,3.90
2019-04-22T06:31:49.835Z,4.00
2019-04-22T06:34:14.473Z,3.42
2019-04-22T06:36:47.766Z,3.95
2019-04-22T06:39:14.589Z,3.52
2019-04-22T06:41:42.018Z,3.92
2019-04-22T06:46:41.917Z,4.00
2019-04-22T06:49:21.056Z,3.98
2019-04-22T06:51:45.328Z,3.83
2019-04-22T06:54:14.101Z,3.60
2019-04-22T06:56:49.158Z,3.83
2019-04-22T06:59:19.003Z,3.62
2019-04-22T07:01:51.946Z,3.75
2019-04-22T07:04:19.820Z,3.83
2019-04-22T07:06:56.804Z,3.90
2019-04-22T07:12:02.165Z,4.10
2019-04-22T07:14:23.857Z,4.17
2019-04-22T07:16:57.513Z,3.40
2019-04-22T07:19:28.146Z,4.28
2019-04-22T07:22:11.162Z,4.62
2019-04-22T07:24:40.640Z,4.33
2019-04-22T07:27:08.158Z,3.95
2019-04-22T07:29:32.694Z,4.22
2019-04-22T07:34:35.479Z,4.10
2019-04-22T07:39:37.941Z,4.12
2019-04-22T07:42:16.667Z,4.10
2019-04-22T07:44:43.022Z,4.35
2019-04-22T07:47:18.576Z,3.47
2019-04-22T07:52:10.013Z,3.72
2019-04-22T07:54:51.012Z,3.67
2019-04-22T07:57:20.176Z,3.77
2019-04-22T07:59:49.300Z,3.50
2019-04-22T08:02:18.859Z,3.98
2019-04-22T08:04:58.996Z,3.90
2019-04-22T08:07:19.466Z,3.52
2019-04-22T08:12:19.784Z,3.33
2019-04-22T08:14:52.570Z,3.50
2019-04-22T08:17:50.854Z,3.50
2019-04-22T08:19:56.079Z,3.58
2019-04-22T08:22:23.998Z,3.00
2019-04-22T08:24:54.285Z,3.50
2019-04-22T08:27:22.488Z,3.50
2019-04-22T08:32:34.598Z,3.60
2019-04-22T08:35:05.136Z,2.83
2019-04-22T08:40:07.800Z,3.25
2019-04-22T08:42:43.220Z,3.17
2019-04-22T08:45:09.487Z,3.47
2019-04-22T08:47:36.286Z,3.30
2019-04-22T08:50:21.943Z,3.00
2019-04-22T08:52:40.659Z,3.20
2019-04-22T08:55:14.334Z,3.22
2019-04-22T08:58:04.833Z,3.15
2019-04-22T09:00:15.451Z,3.00
2019-04-22T09:02:48.192Z,3.65
2019-04-22T09:05:22.524Z,3.47
2019-04-22T09:07:47.107Z,3.12
2019-04-22T09:10:20.328Z,2.83
2019-04-22T09:12:56.928Z,2.92
2019-04-22T09:15:18.497Z,3.30
2019-04-22T09:18:00.441Z,2.65
2019-04-22T09:20:20.740Z,3.45
2019-04-22T09:22:56.930Z,2.90
2019-04-22T09:25:26.607Z,3.12
2019-04-22T09:28:10.483Z,3.80
2019-04-22T09:30:27.463Z,2.95
2019-04-22T09:33:04.255Z,3.47
2019-04-22T09:35:31.635Z,3.65
2019-04-22T09:38:12.619Z,3.25
2019-04-22T09:40:34.491Z,3.22
2019-04-22T09:43:24.447Z,3.30
2019-04-22T09:45:52.804Z,3.42
2019-04-22T09:48:29.747Z,3.58
2019-04-22T09:50:54.069Z,3.92
2019-04-22T09:53:32.298Z,3.60
2019-04-22T09:56:03.939Z,3.10
2019-04-22T09:58:31.611Z,3.42
2019-04-22T10:01:18.773Z,3.47
2019-04-22T10:03:51.407Z,3.33
2019-04-22T10:06:24.766Z,3.87
2019-04-22T10:11:31.311Z,3.33
2019-04-22T10:13:53.837Z,3.20
2019-04-22T10:16:29.217Z,3.25
2019-04-22T10:18:55.735Z,2.77
2019-04-22T10:21:35.801Z,3.00
2019-04-22T10:23:57.951Z,3.08
2019-04-22T10:26:27.973Z,3.33
2019-04-22T10:29:00.541Z,3.15
2019-04-22T10:31:39.128Z,2.55
2019-04-22T10:33:49.642Z,3.20
2019-04-22T10:36:07.873Z,3.10
2019-04-22T10:38:37.432Z,3.00
2019-04-22T10:41:08.307Z,3.20
2019-04-22T10:43:38.987Z,3.12
2019-04-22T10:46:10.369Z,3.08
2019-04-22T10:48:42.076Z,3.57
2019-04-22T10:51:12.702Z,3.00
2019-04-22T10:53:43.626Z,3.10
2019-04-22T10:56:13.149Z,2.80
2019-04-22T10:58:42.631Z,3.02
2019-04-22T11:01:25.625Z,2.98
2019-04-22T11:03:55.228Z,3.02
2019-04-22T11:06:25.393Z,2.80
2019-04-22T11:08:59.807Z,2.80
2019-04-22T11:11:34.821Z,2.87
2019-04-22T11:13:58.043Z,2.72
2019-04-22T11:16:27.868Z,2.25
2019-04-22T11:18:57.454Z,2.95
2019-04-22T11:21:27.445Z,2.65
2019-04-22T11:23:58.601Z,2.72
2019-04-22T11:26:28.332Z,2.83
2019-04-22T11:28:59.252Z,2.90
2019-04-22T11:31:30.362Z,3.17
2019-04-22T11:34:00.769Z,2.60
2019-04-22T11:36:30.902Z,3.10
2019-04-22T11:39:05.409Z,3.15
2019-04-22T11:41:36.161Z,2.52
2019-04-22T11:44:07.559Z,2.90
2019-04-22T11:46:37.029Z,2.42
2019-04-22T11:49:07.828Z,2.75
2019-04-22T11:51:38.067Z,3.02
2019-04-22T11:54:07.586Z,2.35
2019-04-22T11:56:38.804Z,2.80
2019-04-22T11:59:08.896Z,2.50
2019-04-22T12:01:39.039Z,2.47
2019-04-22T12:04:09.696Z,2.50
2019-04-22T12:06:40.095Z,2.45
2019-04-22T12:09:12.944Z,2.85
2019-04-22T12:11:42.337Z,2.60
2019-04-22T12:14:11.814Z,2.83
2019-04-22T12:16:41.400Z,2.75
2019-04-22T12:19:11.453Z,2.70
2019-04-22T12:21:41.315Z,3.10
2019-04-22T12:24:13.075Z,2.25
2019-04-22T12:26:42.568Z,2.62
2019-04-22T12:29:13.328Z,2.50
2019-04-22T12:31:42.925Z,2.72
2019-04-22T12:34:13.282Z,2.50
2019-04-22T12:36:42.784Z,2.52
2019-04-22T12:39:13.596Z,2.33
2019-04-22T12:41:44.301Z,2.35
2019-04-22T12:44:15.042Z,2.58
2019-04-22T12:46:46.005Z,2.30
2019-04-22T12:49:16.289Z,2.47
2019-04-22T12:51:47.378Z,2.60
2019-04-22T12:54:17.111Z,2.37
2019-04-22T12:56:47.843Z,2.62
2019-04-22T12:59:17.524Z,2.65
2019-04-22T13:01:47.013Z,2.17
2019-04-22T13:04:19.455Z,2.30
2019-04-22T13:06:48.033Z,2.42
2019-04-22T13:09:19.367Z,2.12
2019-04-22T13:11:48.962Z,2.80
2019-04-22T13:14:19.160Z,2.40
2019-04-22T13:16:49.174Z,2.67
2019-04-22T13:19:20.958Z,2.95
2019-04-22T13:21:50.964Z,2.50
2019-04-22T13:24:21.742Z,2.80
2019-04-22T13:26:52.848Z,2.30
2019-04-22T13:29:23.234Z,2.40
2019-04-22T13:31:53.137Z,2.27
2019-04-22T13:34:31.629Z,2.67
2019-04-22T13:36:54.941Z,2.87
2019-04-22T13:39:25.048Z,2.00
2019-04-22T13:42:00.654Z,2.52
2019-04-22T13:44:25.749Z,2.05
2019-04-22T13:47:08.162Z,2.10
2019-04-22T13:50:01.090Z,3.20
2019-04-22T13:52:31.954Z,2.50
2019-04-22T13:55:05.684Z,2.50
2019-04-22T13:57:19.837Z,2.17
2019-04-22T13:59:40.355Z,2.20
2019-04-22T14:02:12.782Z,2.22
2019-04-22T14:04:46.317Z,1.98
2019-04-22T14:07:16.630Z,2.05
2019-04-22T14:09:46.516Z,2.62
2019-04-22T14:12:17.960Z,2.95
2019-04-22T14:14:49.083Z,2.05
2019-04-22T14:17:18.772Z,2.00
2019-04-22T14:19:50.655Z,2.30
2019-04-22T14:22:22.032Z,2.25
2019-04-22T14:24:52.379Z,3.83
2019-04-22T14:27:31.642Z,2.22
2019-04-22T14:30:06.285Z,2.10
2019-04-22T14:35:09.113Z,1.90
2019-04-22T14:37:38.683Z,2.05
2019-04-22T14:40:09.969Z,2.05
2019-04-22T14:43:03.469Z,1.92
2019-04-22T14:45:43.837Z,1.95
2019-04-22T14:48:09.590Z,2.47
2019-04-22T14:50:35.167Z,2.60
2019-04-22T14:53:04.170Z,2.15
2019-04-22T14:55:23.110Z,2.08
2019-04-22T14:57:49.019Z,1.92
2019-04-22T15:00:21.962Z,2.00
2019-04-22T15:05:22.031Z,2.22
2019-04-22T15:07:52.921Z,2.20
2019-04-22T15:10:24.310Z,2.40
2019-04-22T15:12:56.973Z,2.25
2019-04-22T15:15:29.194Z,2.40
2019-04-22T15:18:00.948Z,2.30
2019-04-22T15:23:20.364Z,2.00
2019-04-22T15:25:50.733Z,1.87
2019-04-22T15:28:21.592Z,1.70
2019-04-22T15:30:51.329Z,1.57
2019-04-22T15:33:21.426Z,1.57
2019-04-22T15:35:51.537Z,1.70
2019-04-22T15:38:23.794Z,1.52
2019-04-22T15:40:54.537Z,1.67
2019-04-22T15:43:27.342Z,2.05
2019-04-22T15:45:55.263Z,1.50
2019-04-22T15:48:27.212Z,1.90
2019-04-22T15:50:58.352Z,1.40
2019-04-22T15:53:27.893Z,1.70
2019-04-22T15:55:58.687Z,1.90
2019-04-22T15:58:28.232Z,1.30
2019-04-22T16:01:08.886Z,1.25
2019-04-22T16:03:29.145Z,1.40
2019-04-22T16:05:59.782Z,1.47
2019-04-22T16:08:32.369Z,1.30
2019-04-22T16:11:00.273Z,1.32
2019-04-22T16:13:34.023Z,1.30
2019-04-22T16:16:00.709Z,1.37
2019-04-22T16:18:30.727Z,1.52
2019-04-22T16:21:00.565Z,1.70
2019-04-22T16:23:32.194Z,1.40
2019-04-22T16:26:22.064Z,1.50
2019-04-22T16:28:55.451Z,1.87
2019-04-22T16:31:25.031Z,1.23
2019-04-22T16:33:56.187Z,2.08
2019-04-22T16:36:26.908Z,1.70
2019-04-22T16:38:57.033Z,1.60
2019-04-22T16:41:26.622Z,1.50
2019-04-22T16:43:56.338Z,1.65
2019-04-22T16:46:25.812Z,1.50
2019-04-22T16:48:55.967Z,1.70
2019-04-22T16:51:27.645Z,1.60
2019-04-22T16:53:58.002Z,1.60
2019-04-22T16:56:29.077Z,1.82
2019-04-22T16:58:58.976Z,1.82
2019-04-22T17:01:43.146Z,1.57
2019-04-22T17:04:18.625Z,1.65
2019-04-22T17:06:49.837Z,2.02
2019-04-22T17:09:21.629Z,1.70
2019-04-22T17:11:52.159Z,1.90
2019-04-22T17:14:29.578Z,1.77
2019-04-22T17:16:52.886Z,1.80
2019-04-22T17:19:23.618Z,2.02
2019-04-22T17:21:53.519Z,1.77
2019-04-22T17:24:23.661Z,1.72
2019-04-22T17:26:54.720Z,1.90
2019-04-22T17:29:24.354Z,1.85
2019-04-22T17:32:00.660Z,2.02
2019-04-22T17:34:25.458Z,1.47
2019-04-22T17:36:55.254Z,2.02
2019-04-22T17:39:40.182Z,1.90
2019-04-22T17:42:14.105Z,1.85
2019-04-22T17:44:57.148Z,2.00
2019-04-22T17:47:25.877Z,1.75
2019-04-22T17:50:08.313Z,1.90
2019-04-22T17:52:38.878Z,1.90
2019-04-22T17:55:07.562Z,2.10
2019-04-22T17:57:34.394Z,2.17
2019-04-22T18:00:06.873Z,2.20
2019-04-22T18:02:35.693Z,2.17
2019-04-22T18:04:56.254Z,2.08
2019-04-22T18:07:42.945Z,1.80
2019-04-22T18:10:29.984Z,1.95
2019-04-22T18:12:50.187Z,1.87
2019-04-22T18:15:14.613Z,2.00
2019-04-22T18:17:46.298Z,1.72
2019-04-22T18:20:13.134Z,2.00
2019-04-22T18:22:39.668Z,1.90
2019-04-22T18:25:11.540Z,1.75
2019-04-22T18:28:00.667Z,1.82
2019-04-22T18:30:20.365Z,2.10
2019-04-22T18:32:55.851Z,2.67
2019-04-22T18:35:29.728Z,2.70
2019-04-22T18:38:03.105Z,2.20
2019-04-22T18:40:30.550Z,2.20
2019-04-22T18:43:04.814Z,2.27
2019-04-22T18:45:47.277Z,1.70
2019-04-22T18:48:02.591Z,1.82
2019-04-22T18:50:45.610Z,1.70
2019-04-22T18:55:45.738Z,2.10
2019-04-22T18:58:18.060Z,2.08
2019-04-22T19:00:36.467Z,2.37
2019-04-22T19:03:15.902Z,1.77
2019-04-22T19:06:03.642Z,1.57
2019-04-22T19:08:30.422Z,2.20
2019-04-22T19:11:09.971Z,1.80
2019-04-22T19:16:31.010Z,2.58
2019-04-22T19:18:44.517Z,2.42
2019-04-22T19:21:13.186Z,2.12
2019-04-22T19:23:37.330Z,2.00
2019-04-22T19:26:13.808Z,1.75
2019-04-22T19:28:46.508Z,2.15
2019-04-22T19:31:19.063Z,2.22
2019-04-22T19:33:47.579Z,2.55
2019-04-22T19:36:14.616Z,2.25
2019-04-22T19:38:45.453Z,2.70
2019-04-22T19:41:19.939Z,2.45
2019-04-22T19:43:53.289Z,2.15
2019-04-22T19:46:19.480Z,2.10
2019-04-22T19:48:56.498Z,2.20
2019-04-22T19:51:29.471Z,2.27
2019-04-22T19:53:57.718Z,2.47
2019-04-22T19:56:21.485Z,2.70
2019-04-22T19:58:53.224Z,2.40
2019-04-22T20:01:41.667Z,2.40
2019-04-22T20:06:53.316Z,2.25
2019-04-22T20:09:29.845Z,2.40
2019-04-22T20:14:28.112Z,2.27
2019-04-22T20:16:54.368Z,2.12
2019-04-22T20:19:39.789Z,2.20
2019-04-22T20:22:03.036Z,2.70
2019-04-22T20:24:18.125Z,2.40
2019-04-22T20:27:02.924Z,2.20
2019-04-22T20:29:38.410Z,2.40
2019-04-22T20:32:05.943Z,2.58
2019-04-22T20:34:38.016Z,2.00
2019-04-22T20:39:44.239Z,2.05
2019-04-22T20:42:27.787Z,2.05
2019-04-22T20:44:46.045Z,2.12
2019-04-22T20:47:10.626Z,2.65
2019-04-22T20:49:47.220Z,2.37
2019-04-22T20:52:19.268Z,2.47
2019-04-22T20:54:45.018Z,1.90
2019-04-22T20:57:17.242Z,2.58
2019-04-22T20:59:48.130Z,2.65
2019-04-22T21:02:15.184Z,2.37
2019-04-22T21:04:41.090Z,1.92
2019-04-22T21:07:16.731Z,1.92
2019-04-22T21:09:49.301Z,2.35
2019-04-22T21:12:17.640Z,2.52
2019-04-22T21:15:02.511Z,2.10
2019-04-22T21:17:25.005Z,2.05
2019-04-22T21:20:00.588Z,2.35
2019-04-22T21:22:29.220Z,2.47
2019-04-22T21:24:52.212Z,2.33
2019-04-22T21:27:38.267Z,2.15
2019-04-22T21:29:56.322Z,2.40
2019-04-22T21:32:34.526Z,2.35
2019-04-22T21:35:13.363Z,2.25
2019-04-22T21:37:58.614Z,2.58
2019-04-22T21:40:10.716Z,2.40
2019-04-22T21:42:48.898Z,2.55
2019-04-22T21:45:05.738Z,2.60
2019-04-22T21:47:55.627Z,2.15
2019-04-22T21:50:28.317Z,2.80
2019-04-22T21:52:50.887Z,2.12
2019-04-22T21:55:16.925Z,2.52
2019-04-22T21:58:07.003Z,2.47
2019-04-22T22:00:54.063Z,2.05
2019-04-22T22:03:18.936Z,2.33
2019-04-22T22:05:39.794Z,2.37
2019-04-22T22:08:23.539Z,2.25
2019-04-22T22:10:52.314Z,2.35
2019-04-22T22:13:15.577Z,2.33
2019-04-22T22:15:52.394Z,2.40
2019-04-22T22:18:16.420Z,2.40
2019-04-22T22:21:12.953Z,2.62
2019-04-22T22:25:52.280Z,2.27
2019-04-22T22:28:42.043Z,2.85
2019-04-22T22:31:04.460Z,2.47
2019-04-22T22:33:28.333Z,2.30
2019-04-22T22:35:58.426Z,3.02
2019-04-22T22:38:27.102Z,2.50
2019-04-22T22:40:43.683Z,2.50
2019-04-22T22:43:20.379Z,2.67
2019-04-22T22:45:54.451Z,3.12
2019-04-22T22:48:41.438Z,2.85
2019-04-22T22:51:06.877Z,2.87
2019-04-22T22:56:13.586Z,3.15
2019-04-22T22:58:41.261Z,2.85
2019-04-22T23:01:09.931Z,2.90
2019-04-22T23:03:51.706Z,2.90
2019-04-22T23:06:20.767Z,3.33
2019-04-22T23:08:51.691Z,2.90
2019-04-22T23:11:22.344Z,2.58
2019-04-22T23:13:49.733Z,2.42
2019-04-22T23:16:12.635Z,2.72
2019-04-22T23:18:34.101Z,2.83
2019-04-22T23:21:08.356Z,2.75
2019-04-22T23:23:51.671Z,2.70
2019-04-22T23:26:29.832Z,3.10
2019-04-22T23:28:58.926Z,2.20
2019-04-22T23:31:29.437Z,2.80
2019-04-22T23:34:09.551Z,2.60
2019-04-22T23:36:45.889Z,2.47
2019-04-22T23:39:27.518Z,2.52
2019-04-22T23:44:37.980Z,2.55
2019-04-22T23:46:59.934Z,2.40
2019-04-22T23:49:28.162Z,2.47
2019-04-22T23:52:09.678Z,2.47
2019-04-22T23:54:43.545Z,2.90
2019-04-22T23:57:03.353Z,2.72
2019-04-22T23:59:50.116Z,2.72
